^^
Saratoga-Weather Station Historical Data
Daily Summary for August 15, 2021 Units:  Both    English   Metric
Daily Weekly Monthly Yearly Custom
  High: Low: Average:
Temperature: 59.2 °F /  15.1 °C 37.8 °F /  3.2 °C 48.7 °F /  9.3 °C
Dew Point: 51.3 °F /  10.7 °C 36.7 °F /  2.6 °C 45.3 °F /  7.4 °C
Humidity: 97% 71% 88%
Wind Speed: 8.1mph /  13km/h - 0.9mph /  1.4km/h
Wind Gust: 10mph /  16.1km/h - -
Wind- - SW
Pressure: 30.2 in /  1021.7 hPa 30.1 in /  1018.0 hPa -
Precipitation: 0 in /  0.0 mm    
Historical Graphs
 
 
Tabular Data for August 15, 2021
Time Temperature Dew Point Pressure Wind Wind Speed Wind Gust Humidity Rainfall Rate (Hourly) solar
00:03 43.7 °F /  6.5 °C 42.4 °F /  5.8 °C 30.2in /  1021.7hPa Calm     95% 0in /  0.0mm 0 W/m2
00:08 43.5 °F /  6.4 °C 42.3 °F /  5.7 °C 30.2in /  1021.7hPa Calm     95% 0in /  0.0mm 0 W/m2
00:13 43.3 °F /  6.3 °C 42.1 °F /  5.6 °C 30.2in /  1021.7hPa Calm     95% 0in /  0.0mm 0 W/m2
00:18 43.3 °F /  6.3 °C 42.1 °F /  5.6 °C 30.2in /  1021.7hPa Calm     95% 0in /  0.0mm 0 W/m2
00:23 43.3 °F /  6.3 °C 42.1 °F /  5.6 °C 30.2in /  1021.7hPa Calm     95% 0in /  0.0mm 0 W/m2
00:28 43.2 °F /  6.2 °C 41.9 °F /  5.5 °C 30.2in /  1021.3hPa Calm     95% 0in /  0.0mm 0 W/m2
00:33 43.2 °F /  6.2 °C 41.9 °F /  5.5 °C 30.2in /  1021.3hPa Calm     95% 0in /  0.0mm 0 W/m2
00:38 43.2 °F /  6.2 °C 41.9 °F /  5.5 °C 30.2in /  1021.3hPa Calm     95% 0in /  0.0mm 0 W/m2
00:43 43.2 °F /  6.2 °C 41.9 °F /  5.5 °C 30.2in /  1021.3hPa Calm     95% 0in /  0.0mm 0 W/m2
00:48 43.2 °F /  6.2 °C 41.9 °F /  5.5 °C 30.2in /  1021.3hPa Calm     95% 0in /  0.0mm 0 W/m2
00:53 43 °F /  6.1 °C 41.7 °F /  5.4 °C 30.2in /  1021.0hPa Calm     95% 0in /  0.0mm 0 W/m2
00:58 43.2 °F /  6.2 °C 42.1 °F /  5.6 °C 30.2in /  1021.0hPa Calm     96% 0in /  0.0mm 0 W/m2
01:03 43 °F /  6.1 °C 41.7 °F /  5.4 °C 30.2in /  1021.0hPa Calm     95% 0in /  0.0mm 0 W/m2
01:08 43 °F /  6.1 °C 41.7 °F /  5.4 °C 30.2in /  1021.0hPa Calm     95% 0in /  0.0mm 0 W/m2
01:13 43 °F /  6.1 °C 41.7 °F /  5.4 °C 30.2in /  1021.0hPa Calm     95% 0in /  0.0mm 0 W/m2
01:18 42.6 °F /  5.9 °C 41.4 °F /  5.2 °C 30.1in /  1020.7hPa Calm     95% 0in /  0.0mm 0 W/m2
01:23 42.6 °F /  5.9 °C 41.4 °F /  5.2 °C 30.1in /  1020.7hPa Calm     95% 0in /  0.0mm 0 W/m2
01:28 42.4 °F /  5.8 °C 41.2 °F /  5.1 °C 30.1in /  1020.7hPa Calm     95% 0in /  0.0mm 0 W/m2
01:33 42.3 °F /  5.7 °C 41 °F /  5 °C 30.1in /  1020.7hPa Calm     95% 0in /  0.0mm 0 W/m2
01:38 42.3 °F /  5.7 °C 41.2 °F /  5.1 °C 30.1in /  1020.7hPa Calm     96% 0in /  0.0mm 0 W/m2
01:43 42.3 °F /  5.7 °C 41 °F /  5 °C 30.1in /  1020.7hPa Calm     95% 0in /  0.0mm 0 W/m2
01:48 42.3 °F /  5.7 °C 41 °F /  5 °C 30.1in /  1020.7hPa Calm     95% 0in /  0.0mm 0 W/m2
01:53 42.1 °F /  5.6 °C 40.8 °F /  4.9 °C 30.1in /  1020.7hPa Calm     95% 0in /  0.0mm 0 W/m2
01:58 42.1 °F /  5.6 °C 41 °F /  5 °C 30.1in /  1020.3hPa Calm     96% 0in /  0.0mm 0 W/m2
02:03 42.1 °F /  5.6 °C 41 °F /  5 °C 30.1in /  1020.3hPa Calm     96% 0in /  0.0mm 0 W/m2
02:08 42.1 °F /  5.6 °C 41 °F /  5 °C 30.1in /  1020.3hPa Calm     96% 0in /  0.0mm 0 W/m2
02:13 42.1 °F /  5.6 °C 41 °F /  5 °C 30.1in /  1020.3hPa Calm     96% 0in /  0.0mm 0 W/m2
02:18 42.1 °F /  5.6 °C 41 °F /  5 °C 30.1in /  1020.3hPa Calm     96% 0in /  0.0mm 0 W/m2
02:23 42.1 °F /  5.6 °C 41 °F /  5 °C 30.1in /  1020.3hPa Calm     96% 0in /  0.0mm 0 W/m2
02:28 41.9 °F /  5.5 °C 40.8 °F /  4.9 °C 30.1in /  1020.3hPa Calm     96% 0in /  0.0mm 0 W/m2
02:33 41.9 °F /  5.5 °C 40.8 °F /  4.9 °C 30.1in /  1020.0hPa Calm     96% 0in /  0.0mm 0 W/m2
02:38 41.7 °F /  5.4 °C 40.6 °F /  4.8 °C 30.1in /  1020.0hPa Calm     96% 0in /  0.0mm 0 W/m2
02:43 41.7 °F /  5.4 °C 40.6 °F /  4.8 °C 30.1in /  1020.0hPa Calm     96% 0in /  0.0mm 0 W/m2
02:48 41.7 °F /  5.4 °C 40.6 °F /  4.8 °C 30.1in /  1020.0hPa Calm     96% 0in /  0.0mm 0 W/m2
02:53 41.7 °F /  5.4 °C 40.6 °F /  4.8 °C 30.1in /  1020.0hPa Calm     96% 0in /  0.0mm 0 W/m2
02:58 41.5 °F /  5.3 °C 40.5 °F /  4.7 °C 30.1in /  1020.0hPa Calm     96% 0in /  0.0mm 0 W/m2
03:03 41.5 °F /  5.3 °C 40.5 °F /  4.7 °C 30.1in /  1020.0hPa Calm     96% 0in /  0.0mm 0 W/m2
03:08 41.4 °F /  5.2 °C 40.3 °F /  4.6 °C 30.1in /  1020.0hPa Calm     96% 0in /  0.0mm 0 W/m2
03:13 41.4 °F /  5.2 °C 40.3 °F /  4.6 °C 30.1in /  1020.0hPa Calm     96% 0in /  0.0mm 0 W/m2
03:18 41.4 °F /  5.2 °C 40.3 °F /  4.6 °C 30.1in /  1019.6hPa Calm     96% 0in /  0.0mm 0 W/m2
03:23 41.2 °F /  5.1 °C 40.1 °F /  4.5 °C 30.1in /  1019.6hPa Calm     96% 0in /  0.0mm 0 W/m2
03:28 41 °F /  5 °C 39.9 °F /  4.4 °C 30.1in /  1019.6hPa Calm     96% 0in /  0.0mm 0 W/m2
03:33 41 °F /  5 °C 39.9 °F /  4.4 °C 30.1in /  1019.6hPa Calm     96% 0in /  0.0mm 0 W/m2
03:38 41 °F /  5 °C 39.9 °F /  4.4 °C 30.1in /  1019.6hPa Calm     96% 0in /  0.0mm 0 W/m2
03:43 41 °F /  5 °C 39.9 °F /  4.4 °C 30.1in /  1019.6hPa Calm     96% 0in /  0.0mm 0 W/m2
03:48 41.2 °F /  5.1 °C 40.1 °F /  4.5 °C 30.1in /  1019.6hPa Calm     96% 0in /  0.0mm 0 W/m2
03:53 41.2 °F /  5.1 °C 40.1 °F /  4.5 °C 30.1in /  1019.6hPa Calm     96% 0in /  0.0mm 0 W/m2
03:58 41.2 °F /  5.1 °C 40.1 °F /  4.5 °C 30.1in /  1019.6hPa Calm     96% 0in /  0.0mm 0 W/m2
04:03 41 °F /  5 °C 39.9 °F /  4.4 °C 30.1in /  1019.3hPa Calm     96% 0in /  0.0mm 0 W/m2
04:08 40.8 °F /  4.9 °C 39.7 °F /  4.3 °C 30.1in /  1019.3hPa Calm     96% 0in /  0.0mm 0 W/m2
04:13 40.8 °F /  4.9 °C 39.7 °F /  4.3 °C 30.1in /  1019.3hPa Calm     96% 0in /  0.0mm 0 W/m2
04:18 40.6 °F /  4.8 °C 39.6 °F /  4.2 °C 30.1in /  1019.3hPa Calm     96% 0in /  0.0mm 0 W/m2
04:23 40.6 °F /  4.8 °C 39.6 °F /  4.2 °C 30.1in /  1019.3hPa Calm     96% 0in /  0.0mm 0 W/m2
04:28 40.5 °F /  4.7 °C 39.4 °F /  4.1 °C 30.1in /  1019.3hPa Calm     96% 0in /  0.0mm 0 W/m2
04:33 40.5 °F /  4.7 °C 39.4 °F /  4.1 °C 30.1in /  1019.0hPa Calm     96% 0in /  0.0mm 0 W/m2
04:38 40.3 °F /  4.6 °C 39.2 °F /  4 °C 30.1in /  1019.0hPa Calm     96% 0in /  0.0mm 0 W/m2
04:43 40.5 °F /  4.7 °C 39.4 °F /  4.1 °C 30.1in /  1019.0hPa Calm     96% 0in /  0.0mm 0 W/m2
04:48 40.6 °F /  4.8 °C 39.6 °F /  4.2 °C 30.1in /  1019.0hPa WSW 0.9mph /  1.4km/h 2mph /  3.2km/h 96% 0in /  0.0mm 0 W/m2
04:53 40.6 °F /  4.8 °C 39.6 °F /  4.2 °C 30.1in /  1019.0hPa Calm   1mph /  1.6km/h 96% 0in /  0.0mm 0 W/m2
04:58 40.8 °F /  4.9 °C 39.7 °F /  4.3 °C 30.1in /  1019.0hPa Calm   2mph /  3.2km/h 96% 0in /  0.0mm 0 W/m2
05:03 40.8 °F /  4.9 °C 39.7 °F /  4.3 °C 30.1in /  1019.0hPa Calm     96% 0in /  0.0mm 0 W/m2
05:08 40.6 °F /  4.8 °C 39.6 °F /  4.2 °C 30.1in /  1019.0hPa Calm     96% 0in /  0.0mm 0 W/m2
05:13 40.6 °F /  4.8 °C 39.6 °F /  4.2 °C 30.1in /  1019.0hPa Calm     96% 0in /  0.0mm 0 W/m2
05:18 40.5 °F /  4.7 °C 39.4 °F /  4.1 °C 30.1in /  1019.0hPa Calm   1mph /  1.6km/h 96% 0in /  0.0mm 0 W/m2
05:23 40.5 °F /  4.7 °C 39.4 °F /  4.1 °C 30.1in /  1019.0hPa Calm     96% 0in /  0.0mm 0 W/m2
05:29 40.5 °F /  4.7 °C 39.4 °F /  4.1 °C 30.1in /  1019.0hPa Calm     96% 0in /  0.0mm 0 W/m2
05:34 40.3 °F /  4.6 °C 39.2 °F /  4 °C 30.1in /  1019.0hPa Calm     96% 0in /  0.0mm 0 W/m2
05:39 40.3 °F /  4.6 °C 39.2 °F /  4 °C 30.1in /  1019.0hPa SSW 0.9mph /  1.4km/h 2mph /  3.2km/h 96% 0in /  0.0mm 0 W/m2
05:44 40.3 °F /  4.6 °C 39.2 °F /  4 °C 30.1in /  1019.0hPa South 2mph /  3.2km/h 2mph /  3.2km/h 96% 0in /  0.0mm 0 W/m2
05:49 40.3 °F /  4.6 °C 39.2 °F /  4 °C 30.1in /  1019.0hPa Calm   1mph /  1.6km/h 96% 0in /  0.0mm 0 W/m2
05:54 40.3 °F /  4.6 °C 39.2 °F /  4 °C 30.1in /  1019.0hPa Calm     96% 0in /  0.0mm 0 W/m2
05:59 40.1 °F /  4.5 °C 39 °F /  3.9 °C 30.1in /  1019.0hPa Calm   1mph /  1.6km/h 96% 0in /  0.0mm 0 W/m2
06:04 39.9 °F /  4.4 °C 38.8 °F /  3.8 °C 30.1in /  1019.0hPa Calm     96% 0in /  0.0mm 0 W/m2
06:09 39.9 °F /  4.4 °C 38.8 °F /  3.8 °C 30.1in /  1019.0hPa Calm   1mph /  1.6km/h 96% 0in /  0.0mm 0 W/m2
06:14 39.7 °F /  4.3 °C 38.7 °F /  3.7 °C 30.1in /  1019.0hPa Calm     96% 0in /  0.0mm 0 W/m2
06:19 39.6 °F /  4.2 °C 38.5 °F /  3.6 °C 30.1in /  1019.0hPa Calm     96% 0in /  0.0mm 0 W/m2
06:24 39.4 °F /  4.1 °C 38.3 °F /  3.5 °C 30.1in /  1019.0hPa Calm     96% 0in /  0.0mm 0 W/m2
06:29 39.4 °F /  4.1 °C 38.3 °F /  3.5 °C 30.1in /  1018.6hPa Calm     96% 0in /  0.0mm 0 W/m2
06:34 39.2 °F /  4 °C 38.1 °F /  3.4 °C 30.1in /  1018.6hPa Calm     96% 0in /  0.0mm 0 W/m2
06:39 39.2 °F /  4 °C 38.1 °F /  3.4 °C 30.1in /  1018.6hPa Calm     96% 0in /  0.0mm 0 W/m2
06:44 39 °F /  3.9 °C 37.9 °F /  3.3 °C 30.1in /  1018.6hPa Calm     96% 0in /  0.0mm 0 W/m2
06:49 39 °F /  3.9 °C 37.9 °F /  3.3 °C 30.1in /  1018.6hPa Calm     96% 0in /  0.0mm 0 W/m2
06:54 39 °F /  3.9 °C 37.9 °F /  3.3 °C 30.1in /  1018.6hPa Calm     96% 0in /  0.0mm 0 W/m2
06:59 38.8 °F /  3.8 °C 37.8 °F /  3.2 °C 30.1in /  1018.6hPa Calm     96% 0in /  0.0mm 0 W/m2
07:04 38.8 °F /  3.8 °C 37.8 °F /  3.2 °C 30.1in /  1018.6hPa Calm     96% 0in /  0.0mm 0 W/m2
07:09 38.7 °F /  3.7 °C 37.6 °F /  3.1 °C 30.1in /  1018.6hPa Calm     96% 0in /  0.0mm 0 W/m2
07:14 38.7 °F /  3.7 °C 37.6 °F /  3.1 °C 30.1in /  1018.6hPa Calm     96% 0in /  0.0mm 0 W/m2
07:19 38.5 °F /  3.6 °C 37.4 °F /  3 °C 30.1in /  1018.6hPa Calm     96% 0in /  0.0mm 0 W/m2
07:24 38.5 °F /  3.6 °C 37.4 °F /  3 °C 30.1in /  1018.6hPa Calm     96% 0in /  0.0mm 0 W/m2
07:29 38.5 °F /  3.6 °C 37.4 °F /  3 °C 30.1in /  1018.6hPa Calm   2mph /  3.2km/h 96% 0in /  0.0mm 0 W/m2
07:34 38.5 °F /  3.6 °C 37.4 °F /  3 °C 30.1in /  1018.3hPa Calm     96% 0in /  0.0mm 0 W/m2
07:39 38.3 °F /  3.5 °C 37.2 °F /  2.9 °C 30.1in /  1018.3hPa Calm   1mph /  1.6km/h 96% 0in /  0.0mm 0 W/m2
07:44 38.1 °F /  3.4 °C 37 °F /  2.8 °C 30.1in /  1018.6hPa Calm     96% 0in /  0.0mm 0 W/m2
07:49 38.1 °F /  3.4 °C 37 °F /  2.8 °C 30.1in /  1018.3hPa Calm     96% 0in /  0.0mm 0 W/m2
07:54 37.9 °F /  3.3 °C 36.9 °F /  2.7 °C 30.1in /  1018.3hPa Calm     96% 0in /  0.0mm 0 W/m2
07:59 37.9 °F /  3.3 °C 36.9 °F /  2.7 °C 30.1in /  1018.3hPa Calm     96% 0in /  0.0mm 5 W/m2
08:04 37.9 °F /  3.3 °C 36.9 °F /  2.7 °C 30.1in /  1018.3hPa Calm     96% 0in /  0.0mm 9 W/m2
08:09 37.8 °F /  3.2 °C 36.7 °F /  2.6 °C 30.1in /  1018.3hPa Calm     96% 0in /  0.0mm 11 W/m2
08:14 37.8 °F /  3.2 °C 36.7 °F /  2.6 °C 30.1in /  1018.3hPa Calm     96% 0in /  0.0mm 14 W/m2
08:19 37.8 °F /  3.2 °C 36.7 °F /  2.6 °C 30.1in /  1018.6hPa Calm     96% 0in /  0.0mm 16 W/m2
08:24 37.9 °F /  3.3 °C 36.9 °F /  2.7 °C 30.1in /  1018.3hPa Calm     96% 0in /  0.0mm 19 W/m2
08:29 37.9 °F /  3.3 °C 36.9 °F /  2.7 °C 30.1in /  1018.3hPa Calm     96% 0in /  0.0mm 26 W/m2
08:34 38.1 °F /  3.4 °C 37 °F /  2.8 °C 30.1in /  1018.3hPa Calm     96% 0in /  0.0mm 30 W/m2
08:39 38.5 °F /  3.6 °C 37.8 °F /  3.2 °C 30.1in /  1018.6hPa Calm     97% 0in /  0.0mm 32 W/m2
08:44 38.8 °F /  3.8 °C 38.1 °F /  3.4 °C 30.1in /  1018.6hPa Calm     97% 0in /  0.0mm 33 W/m2
08:49 38.8 °F /  3.8 °C 38.1 °F /  3.4 °C 30.1in /  1018.6hPa Calm     97% 0in /  0.0mm 44 W/m2
08:54 39 °F /  3.9 °C 38.3 °F /  3.5 °C 30.1in /  1018.6hPa Calm     97% 0in /  0.0mm 56 W/m2
08:59 39.4 °F /  4.1 °C 38.7 °F /  3.7 °C 30.1in /  1018.6hPa Calm     97% 0in /  0.0mm 58 W/m2
09:04 39.6 °F /  4.2 °C 38.8 °F /  3.8 °C 30.1in /  1018.6hPa Calm     97% 0in /  0.0mm 67 W/m2
09:09 39.7 °F /  4.3 °C 39 °F /  3.9 °C 30.1in /  1018.6hPa Calm     97% 0in /  0.0mm 83 W/m2
09:14 40.1 °F /  4.5 °C 39.4 °F /  4.1 °C 30.1in /  1018.6hPa Calm     97% 0in /  0.0mm 165 W/m2
09:19 40.6 °F /  4.8 °C 39.9 °F /  4.4 °C 30.1in /  1018.6hPa Calm     97% 0in /  0.0mm 204 W/m2
09:24 41.2 °F /  5.1 °C 40.5 °F /  4.7 °C 30.1in /  1018.6hPa ENE 0.9mph /  1.4km/h 3mph /  4.8km/h 97% 0in /  0.0mm 190 W/m2
09:29 41.5 °F /  5.3 °C 40.8 °F /  4.9 °C 30.1in /  1018.6hPa Calm   2mph /  3.2km/h 97% 0in /  0.0mm 132 W/m2
09:34 41.7 °F /  5.4 °C 41 °F /  5 °C 30.1in /  1019.0hPa Calm   3mph /  4.8km/h 97% 0in /  0.0mm 67 W/m2
09:39 42.1 °F /  5.6 °C 41.4 °F /  5.2 °C 30.1in /  1019.0hPa Calm     97% 0in /  0.0mm 62 W/m2
09:44 42.3 °F /  5.7 °C 41.5 °F /  5.3 °C 30.1in /  1018.6hPa Calm     97% 0in /  0.0mm 95 W/m2
09:49 42.4 °F /  5.8 °C 41.7 °F /  5.4 °C 30.1in /  1018.6hPa East 2mph /  3.2km/h 3mph /  4.8km/h 97% 0in /  0.0mm 113 W/m2
09:54 42.8 °F /  6 °C 42.1 °F /  5.6 °C 30.1in /  1018.6hPa ESE 0.9mph /  1.4km/h 3mph /  4.8km/h 97% 0in /  0.0mm 127 W/m2
09:59 43.2 °F /  6.2 °C 42.4 °F /  5.8 °C 30.1in /  1018.6hPa East 2.9mph /  4.7km/h 3mph /  4.8km/h 97% 0in /  0.0mm 125 W/m2
10:04 43.3 °F /  6.3 °C 42.6 °F /  5.9 °C 30.1in /  1018.6hPa ESE 2mph /  3.2km/h 3mph /  4.8km/h 97% 0in /  0.0mm 116 W/m2
10:09 43.3 °F /  6.3 °C 42.6 °F /  5.9 °C 30.1in /  1018.6hPa East 0.9mph /  1.4km/h 3mph /  4.8km/h 97% 0in /  0.0mm 118 W/m2
10:14 43.5 °F /  6.4 °C 42.8 °F /  6 °C 30.1in /  1018.6hPa East 2mph /  3.2km/h 3mph /  4.8km/h 97% 0in /  0.0mm 134 W/m2
10:19 43.7 °F /  6.5 °C 43 °F /  6.1 °C 30.1in /  1018.3hPa East 0.9mph /  1.4km/h 4mph /  6.4km/h 97% 0in /  0.0mm 153 W/m2
10:24 44.1 °F /  6.7 °C 43.3 °F /  6.3 °C 30.1in /  1018.6hPa NE 0.9mph /  1.4km/h 2mph /  3.2km/h 97% 0in /  0.0mm 156 W/m2
10:29 44.2 °F /  6.8 °C 43.5 °F /  6.4 °C 30.1in /  1019.0hPa North 0.9mph /  1.4km/h 4mph /  6.4km/h 97% 0in /  0.0mm 160 W/m2
10:34 44.2 °F /  6.8 °C 43.5 °F /  6.4 °C 30.1in /  1019.0hPa Calm   1mph /  1.6km/h 97% 0in /  0.0mm 160 W/m2
10:39 44.4 °F /  6.9 °C 43.7 °F /  6.5 °C 30.1in /  1019.0hPa Calm     97% 0in /  0.0mm 200 W/m2
10:44 45 °F /  7.2 °C 44.2 °F /  6.8 °C 30.1in /  1019.0hPa Calm     97% 0in /  0.0mm 139 W/m2
10:49 45.1 °F /  7.3 °C 44.4 °F /  6.9 °C 30.1in /  1019.0hPa Calm     97% 0in /  0.0mm 229 W/m2
10:54 45.7 °F /  7.6 °C 45 °F /  7.2 °C 30.1in /  1019.0hPa Calm     97% 0in /  0.0mm 181 W/m2
10:59 46 °F /  7.8 °C 45.3 °F /  7.4 °C 30.1in /  1019.0hPa Calm     97% 0in /  0.0mm 257 W/m2
11:04 46.4 °F /  8 °C 45.7 °F /  7.6 °C 30.1in /  1019.0hPa Calm   1mph /  1.6km/h 97% 0in /  0.0mm 348 W/m2
11:09 46.8 °F /  8.2 °C 46 °F /  7.8 °C 30.1in /  1019.0hPa Calm     97% 0in /  0.0mm 213 W/m2
11:14 47.1 °F /  8.4 °C 46.4 °F /  8 °C 30.1in /  1019.0hPa Calm     97% 0in /  0.0mm 311 W/m2
11:19 47.8 °F /  8.8 °C 46.9 °F /  8.3 °C 30.1in /  1019.0hPa Calm     97% 0in /  0.0mm 241 W/m2
11:24 48.6 °F /  9.2 °C 47.7 °F /  8.7 °C 30.1in /  1019.0hPa Calm     97% 0in /  0.0mm 232 W/m2
11:29 49.1 °F /  9.5 °C 48.2 °F /  9 °C 30.1in /  1019.0hPa Calm   1mph /  1.6km/h 97% 0in /  0.0mm 260 W/m2
11:34 49.8 °F /  9.9 °C 48.7 °F /  9.3 °C 30.1in /  1019.0hPa Calm   1mph /  1.6km/h 96% 0in /  0.0mm 287 W/m2
11:39 50.7 °F /  10.4 °C 49.3 °F /  9.6 °C 30.1in /  1019.0hPa NW 0.9mph /  1.4km/h 4mph /  6.4km/h 95% 0in /  0.0mm 378 W/m2
11:44 51.8 °F /  11 °C 49.3 °F /  9.6 °C 30.1in /  1019.0hPa NNW 0.9mph /  1.4km/h 2mph /  3.2km/h 91% 0in /  0.0mm 410 W/m2
11:50 52.5 °F /  11.4 °C 49.1 °F /  9.5 °C 30.1in /  1019.0hPa WNW 2mph /  3.2km/h 3mph /  4.8km/h 88% 0in /  0.0mm 185 W/m2
11:55 52.9 °F /  11.6 °C 48.6 °F /  9.2 °C 30.1in /  1019.0hPa WNW 2mph /  3.2km/h 2mph /  3.2km/h 85% 0in /  0.0mm 422 W/m2
12:00 53.1 °F /  11.7 °C 48.7 °F /  9.3 °C 30.1in /  1019.0hPa West 0.9mph /  1.4km/h 3mph /  4.8km/h 85% 0in /  0.0mm 149 W/m2
12:05 53.6 °F /  12 °C 48.2 °F /  9 °C 30.1in /  1019.0hPa Calm   3mph /  4.8km/h 82% 0in /  0.0mm 156 W/m2
12:10 54 °F /  12.2 °C 48.2 °F /  9 °C 30.1in /  1019.0hPa NNE 0.9mph /  1.4km/h 2mph /  3.2km/h 81% 0in /  0.0mm 165 W/m2
12:15 54.3 °F /  12.4 °C 48.2 °F /  9 °C 30.1in /  1018.6hPa NNW 0.9mph /  1.4km/h 4mph /  6.4km/h 80% 0in /  0.0mm 167 W/m2
12:20 54.7 °F /  12.6 °C 48.4 °F /  9.1 °C 30.1in /  1019.0hPa Calm   1mph /  1.6km/h 79% 0in /  0.0mm 163 W/m2
12:25 54.9 °F /  12.7 °C 48.6 °F /  9.2 °C 30.1in /  1019.0hPa Calm   4mph /  6.4km/h 79% 0in /  0.0mm 176 W/m2
12:30 55 °F /  12.8 °C 48.6 °F /  9.2 °C 30.1in /  1018.6hPa Calm   2mph /  3.2km/h 79% 0in /  0.0mm 207 W/m2
12:35 55.2 °F /  12.9 °C 48.7 °F /  9.3 °C 30.1in /  1018.6hPa NW 2.9mph /  4.7km/h 3mph /  4.8km/h 79% 0in /  0.0mm 246 W/m2
12:40 55.6 °F /  13.1 °C 48.6 °F /  9.2 °C 30.1in /  1019.0hPa WNW 2mph /  3.2km/h 5mph /  8km/h 77% 0in /  0.0mm 246 W/m2
12:45 55.8 °F /  13.2 °C 48.4 °F /  9.1 °C 30.1in /  1019.0hPa West 2mph /  3.2km/h 4mph /  6.4km/h 76% 0in /  0.0mm 202 W/m2
12:50 55.8 °F /  13.2 °C 48.4 °F /  9.1 °C 30.1in /  1019.0hPa NW 2.9mph /  4.7km/h 5mph /  8km/h 76% 0in /  0.0mm 207 W/m2
12:55 55.8 °F /  13.2 °C 48.7 °F /  9.3 °C 30.1in /  1018.6hPa Calm   3mph /  4.8km/h 77% 0in /  0.0mm 192 W/m2
13:00 55.8 °F /  13.2 °C 48.7 °F /  9.3 °C 30.1in /  1019.0hPa WSW 4mph /  6.4km/h 5mph /  8km/h 77% 0in /  0.0mm 197 W/m2
13:05 55.8 °F /  13.2 °C 48.7 °F /  9.3 °C 30.1in /  1018.6hPa West 0.9mph /  1.4km/h 5mph /  8km/h 77% 0in /  0.0mm 174 W/m2
13:10 55.6 °F /  13.1 °C 48.6 °F /  9.2 °C 30.1in /  1019.0hPa NW 2mph /  3.2km/h 5mph /  8km/h 77% 0in /  0.0mm 162 W/m2
13:15 55.8 °F /  13.2 °C 48.7 °F /  9.3 °C 30.1in /  1019.0hPa WNW 2mph /  3.2km/h 3mph /  4.8km/h 77% 0in /  0.0mm 141 W/m2
13:20 55.8 °F /  13.2 °C 48.9 °F /  9.4 °C 30.1in /  1019.0hPa West 0.9mph /  1.4km/h 2mph /  3.2km/h 78% 0in /  0.0mm 146 W/m2
13:25 55.6 °F /  13.1 °C 48.9 °F /  9.4 °C 30.1in /  1019.0hPa West 6mph /  9.7km/h 7mph /  11.3km/h 78% 0in /  0.0mm 141 W/m2
13:30 55.8 °F /  13.2 °C 48.9 °F /  9.4 °C 30.1in /  1019.0hPa WNW 0.9mph /  1.4km/h 3mph /  4.8km/h 78% 0in /  0.0mm 185 W/m2
13:35 55.8 °F /  13.2 °C 48.7 °F /  9.3 °C 30.1in /  1018.6hPa ENE 0.9mph /  1.4km/h 2mph /  3.2km/h 77% 0in /  0.0mm 352 W/m2
13:40 55.9 °F /  13.3 °C 48.9 °F /  9.4 °C 30.1in /  1018.6hPa West 2.9mph /  4.7km/h 7mph /  11.3km/h 77% 0in /  0.0mm 287 W/m2
13:45 56.1 °F /  13.4 °C 48.9 °F /  9.4 °C 30.1in /  1018.6hPa West 2mph /  3.2km/h 3mph /  4.8km/h 77% 0in /  0.0mm 125 W/m2
13:50 56.1 °F /  13.4 °C 48.9 °F /  9.4 °C 30.1in /  1018.6hPa West 4mph /  6.4km/h 6mph /  9.7km/h 77% 0in /  0.0mm 118 W/m2
13:55 56.5 °F /  13.6 °C 48.9 °F /  9.4 °C 30.1in /  1018.6hPa SSW 0.9mph /  1.4km/h 4mph /  6.4km/h 76% 0in /  0.0mm 120 W/m2
14:00 56.7 °F /  13.7 °C 49.1 °F /  9.5 °C 30.1in /  1018.6hPa WSW 2.9mph /  4.7km/h 4mph /  6.4km/h 76% 0in /  0.0mm 114 W/m2
14:05 56.7 °F /  13.7 °C 48.7 °F /  9.3 °C 30.1in /  1018.6hPa West 0.9mph /  1.4km/h 4mph /  6.4km/h 75% 0in /  0.0mm 125 W/m2
14:10 57 °F /  13.9 °C 49.5 °F /  9.7 °C 30.1in /  1018.6hPa North 2mph /  3.2km/h 2mph /  3.2km/h 76% 0in /  0.0mm 211 W/m2
14:15 57.6 °F /  14.2 °C 48.9 °F /  9.4 °C 30.1in /  1018.3hPa West 2.9mph /  4.7km/h 7mph /  11.3km/h 73% 0in /  0.0mm 285 W/m2
14:20 57.7 °F /  14.3 °C 48.7 °F /  9.3 °C 30.1in /  1018.6hPa West 2mph /  3.2km/h 7mph /  11.3km/h 72% 0in /  0.0mm 234 W/m2
14:25 57.9 °F /  14.4 °C 48.9 °F /  9.4 °C 30.1in /  1018.3hPa West 4mph /  6.4km/h 8mph /  12.9km/h 72% 0in /  0.0mm 181 W/m2
14:30 57.9 °F /  14.4 °C 48.9 °F /  9.4 °C 30.1in /  1018.3hPa WSW 4mph /  6.4km/h 6mph /  9.7km/h 72% 0in /  0.0mm 179 W/m2
14:35 57.7 °F /  14.3 °C 48.7 °F /  9.3 °C 30.1in /  1018.3hPa WSW 0.9mph /  1.4km/h 8mph /  12.9km/h 72% 0in /  0.0mm 132 W/m2
14:40 57.7 °F /  14.3 °C 49.1 °F /  9.5 °C 30.1in /  1018.3hPa WNW 4mph /  6.4km/h 5mph /  8km/h 73% 0in /  0.0mm 125 W/m2
14:45 57.7 °F /  14.3 °C 49.1 °F /  9.5 °C 30.1in /  1018.3hPa WNW 2.9mph /  4.7km/h 4mph /  6.4km/h 73% 0in /  0.0mm 125 W/m2
14:50 57.9 °F /  14.4 °C 49.3 °F /  9.6 °C 30.1in /  1018.3hPa WNW 2mph /  3.2km/h 4mph /  6.4km/h 73% 0in /  0.0mm 149 W/m2
14:55 57.9 °F /  14.4 °C 48.9 °F /  9.4 °C 30.1in /  1018.3hPa West 2.9mph /  4.7km/h 7mph /  11.3km/h 72% 0in /  0.0mm 104 W/m2
15:00 58.1 °F /  14.5 °C 49.5 °F /  9.7 °C 30.1in /  1018.3hPa WSW 4mph /  6.4km/h 8mph /  12.9km/h 73% 0in /  0.0mm 102 W/m2
15:05 58.3 °F /  14.6 °C 49.3 °F /  9.6 °C 30.1in /  1018.3hPa NW 2.9mph /  4.7km/h 8mph /  12.9km/h 72% 0in /  0.0mm 114 W/m2
15:10 58.5 °F /  14.7 °C 49.8 °F /  9.9 °C 30.1in /  1018.0hPa NW 2mph /  3.2km/h 6mph /  9.7km/h 73% 0in /  0.0mm 178 W/m2
15:15 58.6 °F /  14.8 °C 49.6 °F /  9.8 °C 30.1in /  1018.0hPa WSW 2.9mph /  4.7km/h 9mph /  14.5km/h 72% 0in /  0.0mm 216 W/m2
15:20 58.8 °F /  14.9 °C 49.8 °F /  9.9 °C 30.1in /  1018.0hPa WNW 0.9mph /  1.4km/h 3mph /  4.8km/h 72% 0in /  0.0mm 227 W/m2
15:25 59 °F /  15 °C 50 °F /  10 °C 30.1in /  1018.0hPa West 0.9mph /  1.4km/h 2mph /  3.2km/h 72% 0in /  0.0mm 146 W/m2
15:30 59.2 °F /  15.1 °C 49.8 °F /  9.9 °C 30.1in /  1018.0hPa WNW 2mph /  3.2km/h 7mph /  11.3km/h 71% 0in /  0.0mm 134 W/m2
15:35 59 °F /  15 °C 50 °F /  10 °C 30.1in /  1018.0hPa West 2mph /  3.2km/h 3mph /  4.8km/h 72% 0in /  0.0mm 128 W/m2
15:40 58.8 °F /  14.9 °C 49.8 °F /  9.9 °C 30.1in /  1018.0hPa WNW 0.9mph /  1.4km/h 8mph /  12.9km/h 72% 0in /  0.0mm 100 W/m2
15:45 58.6 °F /  14.8 °C 49.6 °F /  9.8 °C 30.1in /  1018.3hPa Calm   7mph /  11.3km/h 72% 0in /  0.0mm 113 W/m2
15:50 58.6 °F /  14.8 °C 50 °F /  10 °C 30.1in /  1018.3hPa WSW 0.9mph /  1.4km/h 5mph /  8km/h 73% 0in /  0.0mm 121 W/m2
15:55 58.5 °F /  14.7 °C 49.8 °F /  9.9 °C 30.1in /  1018.0hPa West 2mph /  3.2km/h 3mph /  4.8km/h 73% 0in /  0.0mm 104 W/m2
16:00 58.3 °F /  14.6 °C 49.6 °F /  9.8 °C 30.1in /  1018.3hPa WNW 2mph /  3.2km/h 3mph /  4.8km/h 73% 0in /  0.0mm 88 W/m2
16:05 58.3 °F /  14.6 °C 50 °F /  10 °C 30.1in /  1018.3hPa WSW 2mph /  3.2km/h 3mph /  4.8km/h 74% 0in /  0.0mm 77 W/m2
16:10 58.3 °F /  14.6 °C 50 °F /  10 °C 30.1in /  1018.3hPa WNW 2mph /  3.2km/h 4mph /  6.4km/h 74% 0in /  0.0mm 111 W/m2
16:15 58.5 °F /  14.7 °C 50.2 °F /  10.1 °C 30.1in /  1018.0hPa Calm   3mph /  4.8km/h 74% 0in /  0.0mm 65 W/m2
16:20 58.5 °F /  14.7 °C 50.2 °F /  10.1 °C 30.1in /  1018.0hPa West 2mph /  3.2km/h 3mph /  4.8km/h 74% 0in /  0.0mm 56 W/m2
16:25 58.5 °F /  14.7 °C 50.2 °F /  10.1 °C 30.1in /  1018.0hPa West 0.9mph /  1.4km/h 2mph /  3.2km/h 74% 0in /  0.0mm 56 W/m2
16:30 58.3 °F /  14.6 °C 50.4 °F /  10.2 °C 30.1in /  1018.0hPa Calm   3mph /  4.8km/h 75% 0in /  0.0mm 53 W/m2
16:35 58.3 °F /  14.6 °C 50.4 °F /  10.2 °C 30.1in /  1018.0hPa West 4mph /  6.4km/h 7mph /  11.3km/h 75% 0in /  0.0mm 77 W/m2
16:40 58.3 °F /  14.6 °C 50.4 °F /  10.2 °C 30.1in /  1018.0hPa WSW 4mph /  6.4km/h 4mph /  6.4km/h 75% 0in /  0.0mm 51 W/m2
16:45 58.3 °F /  14.6 °C 50.4 °F /  10.2 °C 30.1in /  1018.0hPa West 0.9mph /  1.4km/h 4mph /  6.4km/h 75% 0in /  0.0mm 53 W/m2
16:50 58.5 °F /  14.7 °C 50.5 °F /  10.3 °C 30.1in /  1018.0hPa West 6mph /  9.7km/h 8mph /  12.9km/h 75% 0in /  0.0mm 113 W/m2
16:55 58.5 °F /  14.7 °C 50.5 °F /  10.3 °C 30.1in /  1018.0hPa West 2mph /  3.2km/h 4mph /  6.4km/h 75% 0in /  0.0mm 244 W/m2
17:00 58.3 °F /  14.6 °C 50.7 °F /  10.4 °C 30.1in /  1018.0hPa WNW 8.1mph /  13km/h 10mph /  16.1km/h 76% 0in /  0.0mm 69 W/m2
17:05 58.3 °F /  14.6 °C 50.4 °F /  10.2 °C 30.1in /  1018.0hPa WNW 2.9mph /  4.7km/h 8mph /  12.9km/h 75% 0in /  0.0mm 67 W/m2
17:10 58.3 °F /  14.6 °C 50.7 °F /  10.4 °C 30.1in /  1018.0hPa WSW 2mph /  3.2km/h 10mph /  16.1km/h 76% 0in /  0.0mm 79 W/m2
17:15 58.3 °F /  14.6 °C 50.4 °F /  10.2 °C 30.1in /  1018.0hPa WNW 2mph /  3.2km/h 6mph /  9.7km/h 75% 0in /  0.0mm 76 W/m2
17:20 58.1 °F /  14.5 °C 50.5 °F /  10.3 °C 30.1in /  1018.0hPa West 0.9mph /  1.4km/h 4mph /  6.4km/h 76% 0in /  0.0mm 79 W/m2
17:25 57.9 °F /  14.4 °C 50.4 °F /  10.2 °C 30.1in /  1018.0hPa West 0.9mph /  1.4km/h 3mph /  4.8km/h 76% 0in /  0.0mm 54 W/m2
17:30 57.7 °F /  14.3 °C 50.5 °F /  10.3 °C 30.1in /  1018.3hPa West 0.9mph /  1.4km/h 2mph /  3.2km/h 77% 0in /  0.0mm 49 W/m2
17:35 57.7 °F /  14.3 °C 50.5 °F /  10.3 °C 30.1in /  1018.3hPa West 2mph /  3.2km/h 2mph /  3.2km/h 77% 0in /  0.0mm 42 W/m2
17:40 57.6 °F /  14.2 °C 50.7 °F /  10.4 °C 30.1in /  1018.3hPa West 2mph /  3.2km/h 3mph /  4.8km/h 78% 0in /  0.0mm 44 W/m2
17:45 57.4 °F /  14.1 °C 50.5 °F /  10.3 °C 30.1in /  1018.3hPa West 2mph /  3.2km/h 2mph /  3.2km/h 78% 0in /  0.0mm 28 W/m2
17:50 57 °F /  13.9 °C 50.5 °F /  10.3 °C 30.1in /  1018.3hPa West 0.9mph /  1.4km/h 2mph /  3.2km/h 79% 0in /  0.0mm 30 W/m2
17:55 56.8 °F /  13.8 °C 50.4 °F /  10.2 °C 30.1in /  1018.3hPa West 2mph /  3.2km/h 3mph /  4.8km/h 79% 0in /  0.0mm 30 W/m2
18:01 56.5 °F /  13.6 °C 50 °F /  10 °C 30.1in /  1018.3hPa WSW 2.9mph /  4.7km/h 6mph /  9.7km/h 79% 0in /  0.0mm 26 W/m2
18:06 56.5 °F /  13.6 °C 50 °F /  10 °C 30.1in /  1018.3hPa West 2.9mph /  4.7km/h 3mph /  4.8km/h 79% 0in /  0.0mm 21 W/m2
18:11 56.1 °F /  13.4 °C 49.6 °F /  9.8 °C 30.1in /  1018.3hPa WSW 0.9mph /  1.4km/h 4mph /  6.4km/h 79% 0in /  0.0mm 21 W/m2
18:16 56.1 °F /  13.4 °C 50 °F /  10 °C 30.1in /  1018.3hPa West 2mph /  3.2km/h 4mph /  6.4km/h 80% 0in /  0.0mm 25 W/m2
18:21 55.9 °F /  13.3 °C 49.8 °F /  9.9 °C 30.1in /  1018.3hPa West 2mph /  3.2km/h 3mph /  4.8km/h 80% 0in /  0.0mm 23 W/m2
18:26 55.9 °F /  13.3 °C 50.2 °F /  10.1 °C 30.1in /  1018.3hPa West 2.9mph /  4.7km/h 3mph /  4.8km/h 81% 0in /  0.0mm 16 W/m2
18:31 55.8 °F /  13.2 °C 50 °F /  10 °C 30.1in /  1018.3hPa West 2.9mph /  4.7km/h 3mph /  4.8km/h 81% 0in /  0.0mm 12 W/m2
18:36 55.8 °F /  13.2 °C 50 °F /  10 °C 30.1in /  1018.3hPa West 2mph /  3.2km/h 3mph /  4.8km/h 81% 0in /  0.0mm 9 W/m2
18:41 55.6 °F /  13.1 °C 50.2 °F /  10.1 °C 30.1in /  1018.3hPa West 2mph /  3.2km/h 4mph /  6.4km/h 82% 0in /  0.0mm 7 W/m2
18:46 55.2 °F /  12.9 °C 49.8 °F /  9.9 °C 30.1in /  1018.6hPa WNW 2.9mph /  4.7km/h 6mph /  9.7km/h 82% 0in /  0.0mm 0 W/m2
18:51 55.2 °F /  12.9 °C 50.2 °F /  10.1 °C 30.1in /  1018.6hPa West 4mph /  6.4km/h 4mph /  6.4km/h 83% 0in /  0.0mm 0 W/m2
18:56 55 °F /  12.8 °C 50 °F /  10 °C 30.1in /  1018.6hPa West 2mph /  3.2km/h 6mph /  9.7km/h 83% 0in /  0.0mm 0 W/m2
19:01 55 °F /  12.8 °C 50 °F /  10 °C 30.1in /  1018.6hPa West 0.9mph /  1.4km/h 4mph /  6.4km/h 83% 0in /  0.0mm 0 W/m2
19:06 55 °F /  12.8 °C 50 °F /  10 °C 30.1in /  1018.6hPa Calm     83% 0in /  0.0mm 0 W/m2
19:11 55 °F /  12.8 °C 50.4 °F /  10.2 °C 30.1in /  1019.0hPa West 0.9mph /  1.4km/h 4mph /  6.4km/h 84% 0in /  0.0mm 0 W/m2
19:16 55 °F /  12.8 °C 50.4 °F /  10.2 °C 30.1in /  1019.0hPa West 0.9mph /  1.4km/h 1mph /  1.6km/h 84% 0in /  0.0mm 0 W/m2
19:21 54.9 °F /  12.7 °C 50.2 °F /  10.1 °C 30.1in /  1019.0hPa West 2mph /  3.2km/h 2mph /  3.2km/h 84% 0in /  0.0mm 0 W/m2
19:26 54.9 °F /  12.7 °C 50.4 °F /  10.2 °C 30.1in /  1019.0hPa WNW 2mph /  3.2km/h 3mph /  4.8km/h 85% 0in /  0.0mm 0 W/m2
19:31 54.9 °F /  12.7 °C 50.4 °F /  10.2 °C 30.1in /  1019.0hPa West 0.9mph /  1.4km/h 2mph /  3.2km/h 85% 0in /  0.0mm 0 W/m2
19:36 54.9 °F /  12.7 °C 50.4 °F /  10.2 °C 30.1in /  1019.0hPa West 0.9mph /  1.4km/h 3mph /  4.8km/h 85% 0in /  0.0mm 0 W/m2
19:41 54.9 °F /  12.7 °C 50.4 °F /  10.2 °C 30.1in /  1019.0hPa West 2mph /  3.2km/h 2mph /  3.2km/h 85% 0in /  0.0mm 0 W/m2
19:46 54.9 °F /  12.7 °C 50.4 °F /  10.2 °C 30.1in /  1019.0hPa West 2mph /  3.2km/h 2mph /  3.2km/h 85% 0in /  0.0mm 0 W/m2
19:51 54.9 °F /  12.7 °C 50.4 °F /  10.2 °C 30.1in /  1019.0hPa West 2mph /  3.2km/h 3mph /  4.8km/h 85% 0in /  0.0mm 0 W/m2
19:56 54.9 °F /  12.7 °C 50.4 °F /  10.2 °C 30.1in /  1019.3hPa Calm   1mph /  1.6km/h 85% 0in /  0.0mm 0 W/m2
20:01 55 °F /  12.8 °C 50.5 °F /  10.3 °C 30.1in /  1019.3hPa NNW 2mph /  3.2km/h 3mph /  4.8km/h 85% 0in /  0.0mm 0 W/m2
20:06 54.9 °F /  12.7 °C 50.4 °F /  10.2 °C 30.1in /  1019.3hPa West 0.9mph /  1.4km/h 3mph /  4.8km/h 85% 0in /  0.0mm 0 W/m2
20:11 54.9 °F /  12.7 °C 50.7 °F /  10.4 °C 30.1in /  1019.3hPa West 2.9mph /  4.7km/h 3mph /  4.8km/h 86% 0in /  0.0mm 0 W/m2
20:16 54.7 °F /  12.6 °C 50.5 °F /  10.3 °C 30.1in /  1019.3hPa Calm     86% 0in /  0.0mm 0 W/m2
20:21 54.7 °F /  12.6 °C 50.9 °F /  10.5 °C 30.1in /  1019.3hPa North 0.9mph /  1.4km/h 3mph /  4.8km/h 87% 0in /  0.0mm 0 W/m2
20:26 54.7 °F /  12.6 °C 50.9 °F /  10.5 °C 30.1in /  1019.3hPa Calm   1mph /  1.6km/h 87% 0in /  0.0mm 0 W/m2
20:31 54.5 °F /  12.5 °C 50.7 °F /  10.4 °C 30.1in /  1019.6hPa Calm   3mph /  4.8km/h 87% 0in /  0.0mm 0 W/m2
20:36 54.3 °F /  12.4 °C 50.9 °F /  10.5 °C 30.1in /  1019.6hPa Calm     88% 0in /  0.0mm 0 W/m2
20:41 54.3 °F /  12.4 °C 50.9 °F /  10.5 °C 30.1in /  1019.6hPa NNW 0.9mph /  1.4km/h 1mph /  1.6km/h 88% 0in /  0.0mm 0 W/m2
20:46 54.1 °F /  12.3 °C 50.9 °F /  10.5 °C 30.1in /  1019.6hPa Calm   2mph /  3.2km/h 89% 0in /  0.0mm 0 W/m2
20:51 54.3 °F /  12.4 °C 51.1 °F /  10.6 °C 30.1in /  1019.6hPa West 0.9mph /  1.4km/h 2mph /  3.2km/h 89% 0in /  0.0mm 0 W/m2
20:56 54.3 °F /  12.4 °C 51.1 °F /  10.6 °C 30.1in /  1019.6hPa NW 0.9mph /  1.4km/h 2mph /  3.2km/h 89% 0in /  0.0mm 0 W/m2
21:01 54.3 °F /  12.4 °C 51.1 °F /  10.6 °C 30.1in /  1019.6hPa Calm   1mph /  1.6km/h 89% 0in /  0.0mm 0 W/m2
21:06 54.5 °F /  12.5 °C 51.3 °F /  10.7 °C 30.1in /  1019.6hPa NW 2.9mph /  4.7km/h 4mph /  6.4km/h 89% 0in /  0.0mm 0 W/m2
21:11 54.5 °F /  12.5 °C 51.3 °F /  10.7 °C 30.1in /  1019.6hPa Calm   1mph /  1.6km/h 89% 0in /  0.0mm 0 W/m2
21:16 54.3 °F /  12.4 °C 51.1 °F /  10.6 °C 30.1in /  1019.6hPa Calm   4mph /  6.4km/h 89% 0in /  0.0mm 0 W/m2
21:21 54.5 °F /  12.5 °C 51.3 °F /  10.7 °C 30.1in /  1019.6hPa WNW 0.9mph /  1.4km/h 4mph /  6.4km/h 89% 0in /  0.0mm 0 W/m2
21:26 54.5 °F /  12.5 °C 51.3 °F /  10.7 °C 30.1in /  1019.6hPa East 2.9mph /  4.7km/h 3mph /  4.8km/h 89% 0in /  0.0mm 0 W/m2
21:31 54.5 °F /  12.5 °C 51.3 °F /  10.7 °C 30.1in /  1019.6hPa North 0.9mph /  1.4km/h 2mph /  3.2km/h 89% 0in /  0.0mm 0 W/m2
21:36 54.3 °F /  12.4 °C 51.1 °F /  10.6 °C 30.1in /  1020.0hPa Calm   1mph /  1.6km/h 89% 0in /  0.0mm 0 W/m2
21:41 54.3 °F /  12.4 °C 51.1 °F /  10.6 °C 30.1in /  1020.0hPa NNE 0.9mph /  1.4km/h 4mph /  6.4km/h 89% 0in /  0.0mm 0 W/m2
21:46 54.3 °F /  12.4 °C 51.1 °F /  10.6 °C 30.1in /  1020.0hPa NE 2mph /  3.2km/h 3mph /  4.8km/h 89% 0in /  0.0mm 0 W/m2
21:51 54.3 °F /  12.4 °C 51.1 °F /  10.6 °C 30.1in /  1020.0hPa Calm   2mph /  3.2km/h 89% 0in /  0.0mm 0 W/m2
21:56 54.1 °F /  12.3 °C 50.9 °F /  10.5 °C 30.1in /  1020.0hPa Calm     89% 0in /  0.0mm 0 W/m2
22:01 54.1 °F /  12.3 °C 50.7 °F /  10.4 °C 30.1in /  1020.0hPa Calm   2mph /  3.2km/h 88% 0in /  0.0mm 0 W/m2
22:06 54 °F /  12.2 °C 50.5 °F /  10.3 °C 30.1in /  1020.0hPa Calm   1mph /  1.6km/h 88% 0in /  0.0mm 0 W/m2
22:11 54 °F /  12.2 °C 50.5 °F /  10.3 °C 30.1in /  1020.0hPa Calm   1mph /  1.6km/h 88% 0in /  0.0mm 0 W/m2
22:16 53.8 °F /  12.1 °C 50.4 °F /  10.2 °C 30.1in /  1020.0hPa Calm     88% 0in /  0.0mm 0 W/m2
22:21 53.8 °F /  12.1 °C 50.4 °F /  10.2 °C 30.1in /  1020.0hPa North 0.9mph /  1.4km/h 3mph /  4.8km/h 88% 0in /  0.0mm 0 W/m2
22:26 53.6 °F /  12 °C 49.8 °F /  9.9 °C 30.1in /  1020.0hPa ENE 2.9mph /  4.7km/h 4mph /  6.4km/h 87% 0in /  0.0mm 0 W/m2
22:31 53.4 °F /  11.9 °C 49.6 °F /  9.8 °C 30.1in /  1020.0hPa Calm   3mph /  4.8km/h 87% 0in /  0.0mm 0 W/m2
22:36 53.4 °F /  11.9 °C 49.6 °F /  9.8 °C 30.1in /  1020.0hPa East 2mph /  3.2km/h 4mph /  6.4km/h 87% 0in /  0.0mm 0 W/m2
22:41 53.2 °F /  11.8 °C 49.5 °F /  9.7 °C 30.1in /  1020.0hPa NE 0.9mph /  1.4km/h 1mph /  1.6km/h 87% 0in /  0.0mm 0 W/m2
22:46 53.1 °F /  11.7 °C 49.3 °F /  9.6 °C 30.1in /  1020.0hPa ENE 0.9mph /  1.4km/h 2mph /  3.2km/h 87% 0in /  0.0mm 0 W/m2
22:51 53.1 °F /  11.7 °C 49.3 °F /  9.6 °C 30.1in /  1020.0hPa ENE 0.9mph /  1.4km/h 2mph /  3.2km/h 87% 0in /  0.0mm 0 W/m2
22:57 52.9 °F /  11.6 °C 49.5 °F /  9.7 °C 30.1in /  1020.0hPa NNE 0.9mph /  1.4km/h 1mph /  1.6km/h 88% 0in /  0.0mm 0 W/m2
23:02 52.7 °F /  11.5 °C 49.3 °F /  9.6 °C 30.1in /  1020.0hPa ENE 2mph /  3.2km/h 3mph /  4.8km/h 88% 0in /  0.0mm 0 W/m2
23:07 52.5 °F /  11.4 °C 49.1 °F /  9.5 °C 30.1in /  1020.0hPa East 2mph /  3.2km/h 2mph /  3.2km/h 88% 0in /  0.0mm 0 W/m2
23:12 52.5 °F /  11.4 °C 49.1 °F /  9.5 °C 30.1in /  1020.3hPa NNW 0.9mph /  1.4km/h 3mph /  4.8km/h 88% 0in /  0.0mm 0 W/m2
23:17 52.5 °F /  11.4 °C 49.1 °F /  9.5 °C 30.1in /  1020.3hPa SSE 0.9mph /  1.4km/h 3mph /  4.8km/h 88% 0in /  0.0mm 0 W/m2
23:22 52.3 °F /  11.3 °C 48.9 °F /  9.4 °C 30.1in /  1020.3hPa Calm   1mph /  1.6km/h 88% 0in /  0.0mm 0 W/m2
23:27 52.3 °F /  11.3 °C 48.9 °F /  9.4 °C 30.1in /  1020.3hPa Calm   3mph /  4.8km/h 88% 0in /  0.0mm 0 W/m2
23:32 52.2 °F /  11.2 °C 49.1 °F /  9.5 °C 30.1in /  1020.3hPa Calm   3mph /  4.8km/h 89% 0in /  0.0mm 0 W/m2
23:37 52.2 °F /  11.2 °C 49.1 °F /  9.5 °C 30.1in /  1020.3hPa SSW 0.9mph /  1.4km/h 2mph /  3.2km/h 89% 0in /  0.0mm 0 W/m2
23:42 52 °F /  11.1 °C 48.9 °F /  9.4 °C 30.1in /  1020.3hPa NW 2mph /  3.2km/h 2mph /  3.2km/h 89% 0in /  0.0mm 0 W/m2
23:47 52 °F /  11.1 °C 48.9 °F /  9.4 °C 30.1in /  1020.3hPa Calm   2mph /  3.2km/h 89% 0in /  0.0mm 0 W/m2
23:52 52 °F /  11.1 °C 48.9 °F /  9.4 °C 30.1in /  1020.3hPa East 0.9mph /  1.4km/h 2mph /  3.2km/h 89% 0in /  0.0mm 0 W/m2
23:57 51.8 °F /  11 °C 48.7 °F /  9.3 °C 30.1in /  1020.3hPa Calm   1mph /  1.6km/h 89% 0in /  0.0mm 0 W/m2
Juneau County Weather
Compliments of Weather Underground - 4 mb